createdAt,value
2023-02-04T00:00:15.650Z,0.00
2023-02-04T00:02:43.302Z,1.00
2023-02-04T00:05:11.655Z,1.00
2023-02-04T00:07:41.274Z,1.00
2023-02-04T00:10:09.463Z,0.67
2023-02-04T00:12:36.580Z,0.00
2023-02-04T00:15:03.918Z,0.00
2023-02-04T00:17:30.857Z,1.00
2023-02-04T00:19:57.641Z,1.00
2023-02-04T00:22:26.623Z,1.00
2023-02-04T00:24:53.448Z,0.00
2023-02-04T00:27:20.205Z,0.00
2023-02-04T00:29:47.112Z,1.00
2023-02-04T00:32:13.939Z,0.00
2023-02-04T00:34:41.514Z,1.00
2023-02-04T00:37:08.264Z,1.00
2023-02-04T00:39:35.081Z,1.00
2023-02-04T00:42:01.828Z,1.00
2023-02-04T00:44:28.556Z,1.00
2023-02-04T00:46:55.450Z,1.00
2023-02-04T00:49:22.178Z,3.00
2023-02-04T00:51:49.337Z,3.00
2023-02-04T00:54:16.206Z,1.00
2023-02-04T00:56:43.939Z,0.33
2023-02-04T00:59:11.123Z,0.67
2023-02-04T01:01:38.755Z,0.67
2023-02-04T01:04:05.775Z,1.00
2023-02-04T01:06:33.606Z,1.00
2023-02-04T01:09:01.535Z,0.00
2023-02-04T01:11:29.215Z,0.00
2023-02-04T01:13:55.948Z,0.00
2023-02-04T01:16:23.217Z,0.67
2023-02-04T01:18:50.043Z,1.00
2023-02-04T01:21:16.870Z,0.00
2023-02-04T01:23:43.592Z,0.33
2023-02-04T01:26:10.347Z,2.33
2023-02-04T01:28:37.159Z,0.33
2023-02-04T01:31:04.098Z,0.00
2023-02-04T01:33:31.053Z,1.67
2023-02-04T01:35:57.836Z,0.00
2023-02-04T01:38:24.527Z,0.00
2023-02-04T01:40:51.677Z,0.00
2023-02-04T01:43:19.391Z,0.00
2023-02-04T01:45:46.735Z,0.00
2023-02-04T01:48:20.307Z,0.00
2023-02-04T01:50:51.248Z,0.00
2023-02-04T01:53:21.979Z,1.00
2023-02-04T01:55:49.315Z,1.00
2023-02-04T01:58:16.623Z,1.00
2023-02-04T02:00:43.387Z,1.00
2023-02-04T02:03:12.183Z,3.00
2023-02-04T02:05:48.429Z,2.33
2023-02-04T02:08:16.551Z,0.00
2023-02-04T02:10:46.863Z,0.33
2023-02-04T02:13:18.086Z,1.00
2023-02-04T02:15:45.986Z,0.00
2023-02-04T02:18:13.402Z,0.00
2023-02-04T02:20:43.199Z,1.00
2023-02-04T02:23:16.273Z,1.67
2023-02-04T02:25:43.354Z,0.33
2023-02-04T02:28:14.455Z,1.00
2023-02-04T02:30:42.894Z,1.00
2023-02-04T02:33:09.647Z,0.00
2023-02-04T02:35:36.468Z,0.00
2023-02-04T02:38:03.625Z,1.00
2023-02-04T02:40:30.720Z,1.00
2023-02-04T02:42:57.612Z,0.67
2023-02-04T02:45:28.016Z,0.00
2023-02-04T02:47:57.692Z,1.00
2023-02-04T02:50:27.062Z,1.67
2023-02-04T02:52:54.610Z,1.00
2023-02-04T02:55:24.954Z,0.00
2023-02-04T02:57:53.859Z,1.00
2023-02-04T03:00:24.006Z,0.00
2023-02-04T03:03:10.098Z,0.00
2023-02-04T03:05:42.700Z,1.00
2023-02-04T03:08:10.813Z,1.00
2023-02-04T03:10:37.798Z,0.00
2023-02-04T03:13:05.451Z,0.00
2023-02-04T03:15:33.087Z,0.00
2023-02-04T03:18:00.782Z,0.00
2023-02-04T03:20:31.089Z,0.00
2023-02-04T03:22:58.759Z,0.00
2023-02-04T03:25:28.286Z,0.00
2023-02-04T03:27:57.531Z,0.00
2023-02-04T03:30:25.992Z,1.00
2023-02-04T03:32:53.760Z,0.00
2023-02-04T03:35:21.095Z,1.00
2023-02-04T03:37:47.886Z,1.00
2023-02-04T03:40:15.566Z,0.00
2023-02-04T03:42:42.488Z,0.00
2023-02-04T03:45:10.053Z,1.00
2023-02-04T03:47:37.306Z,1.00
2023-02-04T03:50:05.899Z,1.00
2023-02-04T03:52:32.694Z,0.33
2023-02-04T03:54:59.366Z,0.00
2023-02-04T03:57:26.384Z,0.00
2023-02-04T03:59:53.212Z,0.00
2023-02-04T04:02:19.912Z,0.67
2023-02-04T04:04:46.706Z,0.33
2023-02-04T04:07:13.382Z,0.00
2023-02-04T04:09:40.183Z,0.33
2023-02-04T04:12:06.835Z,0.00
2023-02-04T04:14:33.585Z,0.00
2023-02-04T04:17:00.341Z,0.33
2023-02-04T04:19:27.272Z,1.00
2023-02-04T04:21:54.949Z,2.50
2023-02-04T04:24:21.735Z,0.00
2023-02-04T04:26:48.524Z,0.00
2023-02-04T04:29:15.279Z,1.00
2023-02-04T04:31:42.634Z,0.00
2023-02-04T04:34:09.556Z,1.00
2023-02-04T04:36:36.331Z,1.00
2023-02-04T04:39:03.274Z,0.00
2023-02-04T04:41:30.001Z,1.00
2023-02-04T04:43:56.748Z,1.00
2023-02-04T04:46:23.722Z,0.00
2023-02-04T04:48:50.453Z,1.00
2023-02-04T04:51:17.332Z,1.00
2023-02-04T04:53:44.163Z,0.67
2023-02-04T04:56:13.899Z,0.33
2023-02-04T04:58:40.544Z,0.33
2023-02-04T05:01:07.291Z,0.33
2023-02-04T05:03:34.047Z,1.00
2023-02-04T05:06:00.711Z,0.00
2023-02-04T05:08:27.629Z,0.00
2023-02-04T05:10:54.374Z,0.00
2023-02-04T05:13:23.288Z,0.00
2023-02-04T05:15:50.029Z,0.00
2023-02-04T05:18:17.165Z,0.00
2023-02-04T05:20:43.987Z,1.00
2023-02-04T05:23:10.754Z,0.00
2023-02-04T05:25:37.421Z,0.00
2023-02-04T05:28:04.805Z,0.00
2023-02-04T05:30:31.876Z,0.00
2023-02-04T05:32:58.784Z,1.00
2023-02-04T05:35:25.504Z,0.00
2023-02-04T05:37:53.842Z,1.67
2023-02-04T05:40:20.588Z,0.00
2023-02-04T05:42:47.311Z,0.33
2023-02-04T05:45:16.230Z,1.00
2023-02-04T05:47:43.152Z,0.67
2023-02-04T05:50:10.030Z,1.00
2023-02-04T05:52:37.064Z,0.00
2023-02-04T05:55:04.348Z,1.00
2023-02-04T05:57:31.256Z,3.00
2023-02-04T05:59:58.093Z,1.00
2023-02-04T06:02:25.064Z,1.00
2023-02-04T06:04:51.861Z,0.33
2023-02-04T06:07:18.737Z,0.00
2023-02-04T06:09:45.425Z,1.00
2023-02-04T06:12:12.307Z,0.00
2023-02-04T06:14:39.094Z,0.00
2023-02-04T06:17:06.075Z,1.00
2023-02-04T06:19:32.871Z,1.00
2023-02-04T06:21:59.616Z,1.00
2023-02-04T06:24:26.398Z,1.00
2023-02-04T06:26:53.188Z,1.00
2023-02-04T06:29:20.022Z,1.00
2023-02-04T06:31:47.437Z,1.00
2023-02-04T06:34:14.277Z,1.00
2023-02-04T06:36:40.980Z,0.00
2023-02-04T06:39:07.896Z,1.00
2023-02-04T06:41:34.637Z,1.00
2023-02-04T06:44:01.478Z,3.33
2023-02-04T06:46:28.333Z,1.00
2023-02-04T06:48:55.190Z,4.67
2023-02-04T06:51:22.126Z,4.00
2023-02-04T06:53:50.064Z,4.00
2023-02-04T06:56:16.836Z,2.33
2023-02-04T06:58:43.792Z,4.00
2023-02-04T07:01:10.644Z,3.00
2023-02-04T07:03:37.414Z,1.67
2023-02-04T07:06:04.240Z,6.33
2023-02-04T07:08:31.905Z,3.00
2023-02-04T07:10:58.726Z,3.33
2023-02-04T07:13:26.275Z,3.25
2023-02-04T07:15:53.418Z,0.00
2023-02-04T07:18:20.275Z,3.00
2023-02-04T07:20:47.093Z,3.00
2023-02-04T07:23:14.735Z,3.00
2023-02-04T07:25:41.785Z,1.00
2023-02-04T07:28:08.657Z,1.00
2023-02-04T07:30:35.951Z,1.67
2023-02-04T07:33:02.864Z,0.67
2023-02-04T07:35:29.556Z,0.00
2023-02-04T07:37:56.227Z,0.00
2023-02-04T07:40:23.403Z,0.00
2023-02-04T07:42:50.426Z,0.00
2023-02-04T07:45:17.289Z,0.00
2023-02-04T07:47:44.015Z,0.00
2023-02-04T07:50:10.893Z,0.00
2023-02-04T07:52:37.610Z,0.00
2023-02-04T07:55:05.170Z,1.67
2023-02-04T07:57:32.263Z,0.33
2023-02-04T07:59:59.278Z,1.00
2023-02-04T08:02:26.937Z,1.00
2023-02-04T08:04:54.122Z,0.00
2023-02-04T08:07:20.826Z,1.00
2023-02-04T08:09:47.619Z,1.00
2023-02-04T08:12:14.385Z,1.00
2023-02-04T08:14:41.188Z,1.00
2023-02-04T08:17:07.931Z,1.00
2023-02-04T08:19:34.696Z,0.00
2023-02-04T08:22:01.610Z,0.33
2023-02-04T08:24:28.308Z,0.00
2023-02-04T08:26:55.161Z,0.00
2023-02-04T08:29:21.895Z,1.00
2023-02-04T08:31:49.194Z,1.00
2023-02-04T08:34:15.871Z,0.00
2023-02-04T08:36:44.541Z,1.00
2023-02-04T08:39:12.497Z,0.00
2023-02-04T08:41:39.370Z,0.33
2023-02-04T08:44:06.353Z,1.00
2023-02-04T08:46:33.166Z,1.00
2023-02-04T08:49:00.028Z,1.00
2023-02-04T08:51:26.972Z,0.67
2023-02-04T08:53:53.724Z,1.00
2023-02-04T08:56:20.741Z,1.00
2023-02-04T08:58:53.130Z,0.00
2023-02-04T09:01:20.544Z,1.00
2023-02-04T09:03:47.636Z,3.00
2023-02-04T09:06:14.413Z,0.67
2023-02-04T09:08:41.185Z,1.67
2023-02-04T09:11:10.785Z,6.00
2023-02-04T09:13:38.309Z,1.00
2023-02-04T09:16:06.880Z,6.75
2023-02-04T09:18:33.910Z,4.00
2023-02-04T09:21:00.994Z,3.00
2023-02-04T09:23:27.900Z,6.00
2023-02-04T09:25:54.767Z,6.00
2023-02-04T09:28:22.510Z,6.75
2023-02-04T09:30:49.541Z,6.00
2023-02-04T09:33:17.576Z,4.50
2023-02-04T09:35:45.226Z,9.00
2023-02-04T09:38:11.998Z,12.00
2023-02-04T09:40:53.735Z,8.00
2023-02-04T09:43:25.934Z,6.67
2023-02-04T09:45:53.984Z,7.00
2023-02-04T09:48:22.666Z,3.75
2023-02-04T09:50:50.833Z,9.00
2023-02-04T09:53:21.642Z,9.00
2023-02-04T09:55:50.805Z,9.00
2023-02-04T09:58:22.094Z,6.00
2023-02-04T10:01:06.175Z,3.00
2023-02-04T10:03:35.635Z,8.50
2023-02-04T10:06:02.961Z,11.00
2023-02-04T10:08:33.890Z,9.00
2023-02-04T10:11:01.284Z,4.00
2023-02-04T10:13:34.894Z,12.00
2023-02-04T10:16:02.005Z,3.00
2023-02-04T10:18:34.219Z,4.00
2023-02-04T10:21:14.180Z,6.67
2023-02-04T10:23:41.774Z,0.00
2023-02-04T10:26:12.940Z,6.50
2023-02-04T10:28:40.359Z,5.33
2023-02-04T10:31:33.341Z,6.00
2023-02-04T10:34:10.817Z,6.00
2023-02-04T10:36:38.526Z,0.00
2023-02-04T10:39:21.116Z,7.00
2023-02-04T10:41:50.811Z,7.00
2023-02-04T10:44:36.560Z,5.50
2023-02-04T10:47:15.541Z,6.00
2023-02-04T10:49:53.652Z,6.50
2023-02-04T10:52:24.383Z,9.50
2023-02-04T10:54:51.329Z,6.00
2023-02-04T10:57:28.802Z,4.00
2023-02-04T10:59:59.372Z,0.00
2023-02-04T11:03:01.976Z,7.00
2023-02-04T11:05:33.922Z,6.00
2023-02-04T11:08:02.134Z,4.67
2023-02-04T11:10:33.212Z,3.50
2023-02-04T11:13:06.221Z,8.00
2023-02-04T11:15:50.547Z,4.00
2023-02-04T11:18:20.978Z,3.33
2023-02-04T11:20:49.980Z,7.00
2023-02-04T11:23:26.022Z,7.00
2023-02-04T11:26:10.457Z,5.33
2023-02-04T11:28:59.134Z,3.67
2023-02-04T11:31:26.879Z,5.33
2023-02-04T11:34:10.557Z,4.00
2023-02-04T11:37:02.307Z,10.00
2023-02-04T11:39:34.632Z,4.00
2023-02-04T11:42:02.739Z,3.00
2023-02-04T11:44:30.031Z,6.00
2023-02-04T11:47:08.252Z,6.00
2023-02-04T11:49:36.805Z,9.50
2023-02-04T11:52:09.254Z,4.67
2023-02-04T11:54:37.263Z,6.00
2023-02-04T11:57:07.434Z,6.00
2023-02-04T11:59:34.327Z,3.67
2023-02-04T12:02:08.126Z,4.75
2023-02-04T12:04:35.134Z,3.67
2023-02-04T12:07:04.442Z,7.00
2023-02-04T12:09:32.328Z,3.33
2023-02-04T12:12:02.428Z,4.50
2023-02-04T12:14:39.238Z,1.00
2023-02-04T12:17:21.058Z,4.67
2023-02-04T12:19:48.112Z,1.67
2023-02-04T12:22:15.916Z,5.33
2023-02-04T12:24:44.130Z,6.00
2023-02-04T12:27:11.019Z,6.00
2023-02-04T12:29:37.867Z,3.00
2023-02-04T12:32:05.029Z,7.67
2023-02-04T12:34:35.104Z,2.33
2023-02-04T12:37:02.062Z,4.67
2023-02-04T12:39:28.860Z,6.00
2023-02-04T12:41:55.839Z,4.00
2023-02-04T12:44:22.695Z,4.67
2023-02-04T12:46:49.723Z,4.00
2023-02-04T12:49:16.629Z,4.00
2023-02-04T12:51:44.222Z,3.00
2023-02-04T12:54:11.266Z,4.00
2023-02-04T12:56:37.985Z,2.33
2023-02-04T12:59:05.793Z,5.33
2023-02-04T13:01:33.852Z,4.00
2023-02-04T13:04:00.911Z,4.00
2023-02-04T13:06:27.640Z,4.00
2023-02-04T13:08:54.464Z,7.00
2023-02-04T13:11:21.691Z,7.33
2023-02-04T13:13:48.511Z,4.00
2023-02-04T13:16:15.529Z,4.67
2023-02-04T13:18:42.353Z,3.00
2023-02-04T13:21:09.302Z,3.33
2023-02-04T13:23:36.574Z,3.00
2023-02-04T13:26:03.632Z,5.33
2023-02-04T13:28:30.858Z,0.67
2023-02-04T13:30:57.700Z,3.00
2023-02-04T13:33:24.454Z,1.00
2023-02-04T13:35:51.584Z,2.33
2023-02-04T13:38:18.369Z,3.00
2023-02-04T13:40:45.223Z,6.00
2023-02-04T13:43:12.073Z,4.00
2023-02-04T13:45:40.329Z,1.00
2023-02-04T13:48:07.074Z,3.00
2023-02-04T13:50:34.281Z,3.00
2023-02-04T13:53:01.270Z,0.33
2023-02-04T13:55:28.076Z,1.67
2023-02-04T13:57:55.051Z,3.33
2023-02-04T14:00:21.985Z,2.33
2023-02-04T14:02:49.021Z,4.00
2023-02-04T14:05:16.316Z,3.00
2023-02-04T14:07:43.026Z,1.67
2023-02-04T14:10:10.093Z,1.67
2023-02-04T14:12:37.033Z,1.00
2023-02-04T14:15:04.095Z,3.00
2023-02-04T14:17:30.802Z,3.00
2023-02-04T14:19:57.503Z,2.33
2023-02-04T14:22:24.485Z,1.67
2023-02-04T14:24:51.229Z,3.67
2023-02-04T14:27:18.295Z,5.33
2023-02-04T14:29:45.047Z,0.00
2023-02-04T14:32:11.882Z,3.00
2023-02-04T14:34:38.601Z,4.00
2023-02-04T14:37:05.366Z,3.00
2023-02-04T14:39:32.058Z,1.00
2023-02-04T14:41:58.827Z,4.67
2023-02-04T14:44:25.556Z,4.00
2023-02-04T14:46:52.546Z,0.67
2023-02-04T14:49:19.255Z,1.00
2023-02-04T14:51:46.136Z,3.00
2023-02-04T14:54:14.289Z,1.00
2023-02-04T14:56:41.032Z,3.00
2023-02-04T14:59:08.047Z,3.00
2023-02-04T15:01:34.806Z,1.00
2023-02-04T15:04:01.834Z,1.00
2023-02-04T15:06:28.789Z,3.00
2023-02-04T15:08:57.258Z,2.33
2023-02-04T15:11:24.400Z,1.00
2023-02-04T15:13:51.248Z,1.67
2023-02-04T15:16:18.097Z,0.33
2023-02-04T15:18:45.020Z,3.00
2023-02-04T15:21:13.163Z,3.33
2023-02-04T15:23:40.498Z,2.33
2023-02-04T15:26:07.287Z,6.00
2023-02-04T15:28:34.127Z,5.33
2023-02-04T15:31:02.546Z,6.50
2023-02-04T15:33:29.450Z,6.00
2023-02-04T15:35:56.665Z,7.00
2023-02-04T15:38:24.555Z,6.00
2023-02-04T15:40:51.589Z,7.00
2023-02-04T15:43:18.438Z,8.00
2023-02-04T15:45:49.674Z,9.25
2023-02-04T15:48:17.266Z,5.33
2023-02-04T15:50:44.161Z,3.67
2023-02-04T15:53:11.106Z,0.00
2023-02-04T15:55:38.173Z,3.00
2023-02-04T15:58:04.869Z,3.00
2023-02-04T16:00:31.932Z,3.00
2023-02-04T16:02:59.109Z,4.00
2023-02-04T16:05:26.943Z,3.00
2023-02-04T16:08:11.948Z,3.00
2023-02-04T16:10:39.412Z,7.00
2023-02-04T16:13:07.865Z,4.00
2023-02-04T16:15:37.038Z,3.50
2023-02-04T16:18:05.794Z,1.00
2023-02-04T16:20:34.286Z,4.00
2023-02-04T16:23:06.794Z,0.00
2023-02-04T16:25:35.539Z,1.00
2023-02-04T16:28:07.107Z,3.00
2023-02-04T16:30:38.920Z,1.00
2023-02-04T16:33:14.991Z,0.67
2023-02-04T16:36:00.811Z,6.00
2023-02-04T16:38:34.476Z,6.00
2023-02-04T16:41:02.582Z,4.00
2023-02-04T16:43:30.437Z,3.67
2023-02-04T16:45:58.795Z,1.00
2023-02-04T16:48:26.673Z,8.33
2023-02-04T16:50:54.985Z,3.00
2023-02-04T16:53:22.536Z,4.00
2023-02-04T16:55:50.584Z,4.00
2023-02-04T16:58:21.955Z,2.33
2023-02-04T17:00:51.521Z,4.67
2023-02-04T17:03:19.969Z,3.00
2023-02-04T17:05:47.946Z,3.00
2023-02-04T17:08:18.577Z,4.00
2023-02-04T17:11:04.878Z,4.00
2023-02-04T17:13:32.298Z,0.00
2023-02-04T17:16:02.139Z,6.00
2023-02-04T17:18:34.018Z,3.00
2023-02-04T17:21:03.852Z,4.00
2023-02-04T17:23:34.956Z,3.33
2023-02-04T17:26:02.681Z,6.00
2023-02-04T17:28:30.153Z,3.00
2023-02-04T17:30:59.282Z,6.67
2023-02-04T17:33:30.228Z,5.33
2023-02-04T17:36:01.506Z,4.00
2023-02-04T17:38:32.099Z,4.00
2023-02-04T17:41:00.095Z,6.00
2023-02-04T17:43:28.801Z,7.00
2023-02-04T17:45:56.562Z,6.00
2023-02-04T17:48:23.375Z,5.33
2023-02-04T17:50:50.722Z,0.67
2023-02-04T17:53:17.787Z,6.00
2023-02-04T17:55:44.549Z,4.67
2023-02-04T17:58:13.152Z,6.00
2023-02-04T18:00:40.131Z,0.00
2023-02-04T18:03:12.363Z,6.00
2023-02-04T18:05:45.115Z,6.00
2023-02-04T18:08:34.044Z,6.00
2023-02-04T18:11:00.898Z,3.67
2023-02-04T18:13:34.171Z,6.00
2023-02-04T18:16:08.385Z,5.33
2023-02-04T18:18:38.060Z,4.00
2023-02-04T18:21:22.596Z,6.00
2023-02-04T18:24:35.919Z,7.50
2023-02-04T18:27:21.138Z,8.33
2023-02-04T18:29:53.057Z,9.25
2023-02-04T18:32:42.313Z,4.00
2023-02-04T18:35:57.434Z,9.00
2023-02-04T18:38:26.928Z,7.00
2023-02-04T18:41:27.939Z,7.00
2023-02-04T18:44:02.853Z,9.00
2023-02-04T18:46:36.854Z,9.25
2023-02-04T18:49:16.097Z,6.00
2023-02-04T18:51:44.704Z,5.33
2023-02-04T18:54:24.858Z,8.00
2023-02-04T18:56:53.804Z,1.00
2023-02-04T18:59:24.125Z,6.00
2023-02-04T19:01:51.174Z,4.67
2023-02-04T19:04:21.862Z,4.00
2023-02-04T19:06:51.225Z,3.00
2023-02-04T19:09:29.465Z,0.33
2023-02-04T19:12:00.680Z,4.00
2023-02-04T19:14:42.875Z,6.00
2023-02-04T19:17:25.475Z,7.00
2023-02-04T19:20:22.114Z,4.00
2023-02-04T19:22:57.089Z,6.00
2023-02-04T19:28:28.190Z,4.00
2023-02-04T19:31:03.974Z,6.00
2023-02-04T19:33:40.768Z,3.67
2023-02-04T19:36:34.517Z,4.67
2023-02-04T19:39:07.215Z,3.33
2023-02-04T19:41:40.037Z,5.33
2023-02-04T19:44:12.816Z,7.00
2023-02-04T19:46:44.144Z,4.00
2023-02-04T19:49:32.118Z,6.50
2023-02-04T19:51:59.439Z,6.33
2023-02-04T19:54:39.456Z,3.00
2023-02-04T19:57:26.049Z,4.67
2023-02-04T19:59:56.212Z,4.00
2023-02-04T20:02:35.837Z,6.00
2023-02-04T20:05:16.473Z,6.33
2023-02-04T20:07:43.194Z,3.67
2023-02-04T20:10:26.547Z,4.67
2023-02-04T20:13:12.650Z,4.50
2023-02-04T20:15:39.597Z,6.00
2023-02-04T20:18:18.589Z,3.33
2023-02-04T20:20:46.579Z,4.00
2023-02-04T20:23:28.515Z,6.00
2023-02-04T20:25:56.029Z,5.33
2023-02-04T20:28:36.826Z,3.00
2023-02-04T20:31:32.036Z,3.33
2023-02-04T20:34:00.036Z,6.33
2023-02-04T20:36:42.272Z,7.00
2023-02-04T20:39:09.053Z,4.00
2023-02-04T20:41:37.977Z,4.67
2023-02-04T20:44:26.916Z,6.00
2023-02-04T20:47:17.670Z,5.33
2023-02-04T20:49:53.136Z,4.00
2023-02-04T20:53:05.360Z,6.00
2023-02-04T20:55:34.764Z,4.00
2023-02-04T20:58:19.343Z,4.33
2023-02-04T21:00:52.713Z,2.33
2023-02-04T21:03:23.424Z,6.00
2023-02-04T21:05:51.440Z,3.33
2023-02-04T21:08:21.129Z,6.33
2023-02-04T21:10:48.136Z,4.67
2023-02-04T21:13:14.960Z,6.00
2023-02-04T21:15:41.760Z,7.00
2023-02-04T21:18:08.709Z,6.00
2023-02-04T21:20:37.209Z,6.00
2023-02-04T21:23:05.283Z,5.33
2023-02-04T21:25:32.668Z,4.67
2023-02-04T21:27:59.881Z,3.00
2023-02-04T21:30:30.348Z,6.00
2023-02-04T21:32:59.022Z,5.50
2023-02-04T21:35:26.283Z,6.00
2023-02-04T21:37:54.683Z,3.33
2023-02-04T21:40:22.514Z,4.00
2023-02-04T21:42:49.942Z,4.00
2023-02-04T21:45:18.219Z,3.00
2023-02-04T21:47:46.249Z,0.00
2023-02-04T21:50:17.250Z,1.00
2023-02-04T21:52:44.313Z,2.33
2023-02-04T21:55:13.789Z,4.00
2023-02-04T21:57:40.701Z,3.00
2023-02-04T22:00:08.806Z,4.00
2023-02-04T22:02:35.714Z,6.33
2023-02-04T22:05:07.211Z,3.00
2023-02-04T22:07:35.663Z,6.00
2023-02-04T22:10:04.251Z,3.00
2023-02-04T22:12:31.206Z,4.00
2023-02-04T22:15:17.088Z,4.00
2023-02-04T22:17:45.171Z,2.33
2023-02-04T22:20:15.070Z,3.33
2023-02-04T22:22:45.492Z,3.00
2023-02-04T22:25:14.200Z,6.00
2023-02-04T22:27:40.961Z,3.00
2023-02-04T22:30:09.065Z,6.00
2023-02-04T22:32:35.944Z,3.33
2023-02-04T22:35:02.922Z,4.00
2023-02-04T22:37:29.778Z,4.00
2023-02-04T22:39:56.533Z,4.00
2023-02-04T22:42:23.340Z,1.00
2023-02-04T22:44:50.460Z,3.00
2023-02-04T22:47:17.312Z,4.00
2023-02-04T22:49:44.066Z,4.67
2023-02-04T22:52:11.064Z,3.00
2023-02-04T22:54:37.978Z,3.33
2023-02-04T22:57:05.032Z,3.00
2023-02-04T22:59:31.905Z,6.00
2023-02-04T23:01:58.835Z,5.33
2023-02-04T23:04:25.974Z,6.00
2023-02-04T23:06:53.238Z,5.33
2023-02-04T23:09:20.900Z,3.33
2023-02-04T23:11:50.471Z,2.00
2023-02-04T23:14:17.268Z,4.00
2023-02-04T23:16:44.100Z,4.00
2023-02-04T23:19:10.931Z,4.00
2023-02-04T23:21:37.724Z,3.67
2023-02-04T23:24:04.935Z,3.00
2023-02-04T23:26:34.719Z,2.33
2023-02-04T23:29:01.762Z,1.67
2023-02-04T23:31:29.071Z,3.00
2023-02-04T23:33:58.848Z,1.00
2023-02-04T23:36:25.620Z,3.33
2023-02-04T23:38:55.434Z,3.33
2023-02-04T23:41:24.951Z,4.00
2023-02-04T23:43:51.762Z,3.67
2023-02-04T23:46:21.381Z,3.00
2023-02-04T23:48:48.268Z,3.00
2023-02-04T23:51:15.067Z,3.00
2023-02-04T23:53:44.970Z,1.00
2023-02-04T23:56:11.762Z,3.33
2023-02-04T23:58:41.295Z,3.00
